Strona główna
METAR-TAF:

METAR-TAF

Lotnisko :

Chautauqua County/Dunkirk Airport

Dunkirk, Nowy Jork, Stany Zjednoczone

Szerokość geograficzna: 42-29-35N, Długość geograficzna: 079-16-33W, wysokość: 211 m

Aktualna obserwacja pogody

Raport powstał 37 minut temu, godzina 16:53 UTC
Wiatr 10 kt od południe
Temperatura 28°C
Wilgotność 55%
Ciśnienie 1008 hPa
Widzialność: 16.1 km
bezchmurnie

METAR: KDKK 241653Z AUTO 19010KT 10SM CLR 28/18 A2976 RMK AO2 SLP075 T02830178 $

czas: 13:30 (17:30 UTC)


TAF: brakujący

Obserwacja i prognoza pogody dla ponad 4000 lotnisk (raport METAR i TAF).

Dostępne stacje oznaczono żółtymi i czerwonymi punktami na mapie.

Najedź kursorem aby zobaczyć nazwę stacji.

Kliknij aby zobaczyć obserwacje i prognozy pogody.

Aby zmienić mapę: kliknij na zielony przycisk z czarnym krzyżykiem, aby powiększyć; na zielony przycisk z myślnikiem, aby pomniejszyć; na zielone strzałki, aby przejść do map sąsiednich.


METAR-TAF: